sensor_id;sensor_type;location;lat;lon;timestamp;temperature;humidity
37310;DHT22;23195;47.744;7.358;2023-07-29T00:01:52;19.10;99.90
37310;DHT22;23195;47.744;7.358;2023-07-29T00:04:20;19.10;99.90
37310;DHT22;23195;47.744;7.358;2023-07-29T00:06:46;19.00;99.90
37310;DHT22;23195;47.744;7.358;2023-07-29T00:09:11;19.10;99.90
37310;DHT22;23195;47.744;7.358;2023-07-29T00:11:38;19.00;99.90
37310;DHT22;23195;47.744;7.358;2023-07-29T00:14:04;19.00;99.90
37310;DHT22;23195;47.744;7.358;2023-07-29T00:16:32;19.00;99.90
37310;DHT22;23195;47.744;7.358;2023-07-29T00:18:57;18.90;99.90
37310;DHT22;23195;47.744;7.358;2023-07-29T00:21:23;18.90;99.90
37310;DHT22;23195;47.744;7.358;2023-07-29T00:23:49;18.80;99.90
37310;DHT22;23195;47.744;7.358;2023-07-29T00:26:15;18.80;99.90
37310;DHT22;23195;47.744;7.358;2023-07-29T00:28:43;18.80;99.90
37310;DHT22;23195;47.744;7.358;2023-07-29T00:31:09;18.80;99.90
37310;DHT22;23195;47.744;7.358;2023-07-29T00:33:38;18.80;99.90
37310;DHT22;23195;47.744;7.358;2023-07-29T00:36:04;18.70;99.90
37310;DHT22;23195;47.744;7.358;2023-07-29T00:38:31;18.80;99.90
37310;DHT22;23195;47.744;7.358;2023-07-29T00:40:57;18.70;99.90
37310;DHT22;23195;47.744;7.358;2023-07-29T00:43:23;18.80;99.90
37310;DHT22;23195;47.744;7.358;2023-07-29T00:45:49;18.80;99.90
37310;DHT22;23195;47.744;7.358;2023-07-29T00:48:15;18.80;99.90
37310;DHT22;23195;47.744;7.358;2023-07-29T00:50:42;18.80;99.90
37310;DHT22;23195;47.744;7.358;2023-07-29T00:53:11;18.80;99.90
37310;DHT22;23195;47.744;7.358;2023-07-29T00:55:42;18.70;99.90
37310;DHT22;23195;47.744;7.358;2023-07-29T00:58:10;18.80;99.90
37310;DHT22;23195;47.744;7.358;2023-07-29T01:00:37;18.70;99.90
37310;DHT22;23195;47.744;7.358;2023-07-29T01:03:05;18.80;99.90
37310;DHT22;23195;47.744;7.358;2023-07-29T01:06:12;18.80;99.90
37310;DHT22;23195;47.744;7.358;2023-07-29T01:08:46;18.80;99.90
37310;DHT22;23195;47.744;7.358;2023-07-29T01:11:48;18.80;99.90
37310;DHT22;23195;47.744;7.358;2023-07-29T01:17:00;18.80;99.90
37310;DHT22;23195;47.744;7.358;2023-07-29T01:22:23;18.90;99.90
37310;DHT22;23195;47.744;7.358;2023-07-29T01:24:49;18.90;99.90
37310;DHT22;23195;47.744;7.358;2023-07-29T01:27:15;18.90;99.90
37310;DHT22;23195;47.744;7.358;2023-07-29T01:29:41;18.00;99.90
37310;DHT22;23195;47.744;7.358;2023-07-29T01:32:13;19.00;99.90
37310;DHT22;23195;47.744;7.358;2023-07-29T01:34:48;19.00;99.90
37310;DHT22;23195;47.744;7.358;2023-07-29T01:37:22;19.20;99.90
37310;DHT22;23195;47.744;7.358;2023-07-29T01:39:54;19.20;99.90
37310;DHT22;23195;47.744;7.358;2023-07-29T01:42:23;19.30;99.90
37310;DHT22;23195;47.744;7.358;2023-07-29T01:44:49;19.30;99.90
37310;DHT22;23195;47.744;7.358;2023-07-29T01:47:16;19.30;99.90
37310;DHT22;23195;47.744;7.358;2023-07-29T01:49:43;19.40;99.90
37310;DHT22;23195;47.744;7.358;2023-07-29T01:52:09;19.40;99.90
37310;DHT22;23195;47.744;7.358;2023-07-29T01:54:35;19.40;99.90
37310;DHT22;23195;47.744;7.358;2023-07-29T01:57:07;19.50;99.90
37310;DHT22;23195;47.744;7.358;2023-07-29T01:59:33;19.50;99.90
37310;DHT22;23195;47.744;7.358;2023-07-29T02:02:00;19.40;99.90
37310;DHT22;23195;47.744;7.358;2023-07-29T02:04:28;19.40;99.90
37310;DHT22;23195;47.744;7.358;2023-07-29T02:06:54;19.40;99.90
37310;DHT22;23195;47.744;7.358;2023-07-29T02:09:32;19.40;99.90
37310;DHT22;23195;47.744;7.358;2023-07-29T02:12:01;19.40;99.90
37310;DHT22;23195;47.744;7.358;2023-07-29T02:14:31;19.40;99.90
37310;DHT22;23195;47.744;7.358;2023-07-29T02:16:57;19.70;99.90
37310;DHT22;23195;47.744;7.358;2023-07-29T02:19:23;19.30;99.90
37310;DHT22;23195;47.744;7.358;2023-07-29T02:21:49;19.30;99.90
37310;DHT22;23195;47.744;7.358;2023-07-29T02:24:15;19.30;99.90
37310;DHT22;23195;47.744;7.358;2023-07-29T02:26:41;19.20;99.90
37310;DHT22;23195;47.744;7.358;2023-07-29T02:29:07;19.40;99.90
37310;DHT22;23195;47.744;7.358;2023-07-29T02:31:33;19.30;99.90
37310;DHT22;23195;47.744;7.358;2023-07-29T02:34:00;19.20;99.90
37310;DHT22;23195;47.744;7.358;2023-07-29T02:36:26;19.20;99.90
37310;DHT22;23195;47.744;7.358;2023-07-29T02:38:52;19.50;99.90
37310;DHT22;23195;47.744;7.358;2023-07-29T02:41:18;19.30;99.90
37310;DHT22;23195;47.744;7.358;2023-07-29T02:43:48;19.20;99.90
37310;DHT22;23195;47.744;7.358;2023-07-29T02:46:15;19.20;99.90
37310;DHT22;23195;47.744;7.358;2023-07-29T02:48:42;19.10;99.90
37310;DHT22;23195;47.744;7.358;2023-07-29T02:51:08;19.10;99.90
37310;DHT22;23195;47.744;7.358;2023-07-29T02:53:34;19.10;99.90
37310;DHT22;23195;47.744;7.358;2023-07-29T02:56:03;19.10;99.90
37310;DHT22;23195;47.744;7.358;2023-07-29T02:58:29;19.00;99.90
37310;DHT22;23195;47.744;7.358;2023-07-29T03:01:09;20.10;99.90
37310;DHT22;23195;47.744;7.358;2023-07-29T03:03:35;19.50;99.90
37310;DHT22;23195;47.744;7.358;2023-07-29T03:06:06;19.10;99.90
37310;DHT22;23195;47.744;7.358;2023-07-29T03:08:33;19.10;99.90
37310;DHT22;23195;47.744;7.358;2023-07-29T03:11:08;19.10;99.90
37310;DHT22;23195;47.744;7.358;2023-07-29T03:13:35;19.10;99.90
37310;DHT22;23195;47.744;7.358;2023-07-29T03:16:08;19.10;99.90
37310;DHT22;23195;47.744;7.358;2023-07-29T03:18:35;19.10;99.90
37310;DHT22;23195;47.744;7.358;2023-07-29T03:21:04;19.10;99.90
37310;DHT22;23195;47.744;7.358;2023-07-29T03:23:31;19.20;99.90
37310;DHT22;23195;47.744;7.358;2023-07-29T03:26:01;19.20;99.90
37310;DHT22;23195;47.744;7.358;2023-07-29T03:28:33;19.20;99.90
37310;DHT22;23195;47.744;7.358;2023-07-29T03:31:02;19.30;99.90
37310;DHT22;23195;47.744;7.358;2023-07-29T03:36:26;19.30;99.90
37310;DHT22;23195;47.744;7.358;2023-07-29T03:38:52;19.30;99.90
37310;DHT22;23195;47.744;7.358;2023-07-29T03:41:18;19.30;99.90
37310;DHT22;23195;47.744;7.358;2023-07-29T03:43:43;18.20;99.90
37310;DHT22;23195;47.744;7.358;2023-07-29T03:46:09;19.30;99.90
37310;DHT22;23195;47.744;7.358;2023-07-29T03:48:35;19.20;99.90
37310;DHT22;23195;47.744;7.358;2023-07-29T03:51:01;19.20;99.90
37310;DHT22;23195;47.744;7.358;2023-07-29T03:53:27;19.20;99.90
37310;DHT22;23195;47.744;7.358;2023-07-29T03:55:55;19.20;99.90
37310;DHT22;23195;47.744;7.358;2023-07-29T03:58:21;19.10;99.90
37310;DHT22;23195;47.744;7.358;2023-07-29T04:00:47;19.20;99.90
37310;DHT22;23195;47.744;7.358;2023-07-29T04:03:14;19.10;99.90
37310;DHT22;23195;47.744;7.358;2023-07-29T04:05:39;19.00;99.90
37310;DHT22;23195;47.744;7.358;2023-07-29T04:08:05;19.00;99.90
37310;DHT22;23195;47.744;7.358;2023-07-29T04:10:34;19.00;99.90
37310;DHT22;23195;47.744;7.358;2023-07-29T04:13:00;18.90;99.90
37310;DHT22;23195;47.744;7.358;2023-07-29T04:15:26;18.90;99.90
37310;DHT22;23195;47.744;7.358;2023-07-29T04:17:52;18.90;99.90
37310;DHT22;23195;47.744;7.358;2023-07-29T04:20:18;19.00;99.90
37310;DHT22;23195;47.744;7.358;2023-07-29T04:22:43;19.00;99.90
37310;DHT22;23195;47.744;7.358;2023-07-29T04:25:09;19.00;99.90
37310;DHT22;23195;47.744;7.358;2023-07-29T04:27:35;19.10;99.90
37310;DHT22;23195;47.744;7.358;2023-07-29T04:30:00;19.20;99.90
37310;DHT22;23195;47.744;7.358;2023-07-29T04:32:26;19.20;99.90
37310;DHT22;23195;47.744;7.358;2023-07-29T04:34:52;19.20;99.90
37310;DHT22;23195;47.744;7.358;2023-07-29T04:37:18;19.20;99.90
37310;DHT22;23195;47.744;7.358;2023-07-29T04:39:43;19.30;99.90
37310;DHT22;23195;47.744;7.358;2023-07-29T04:42:09;19.30;99.90
37310;DHT22;23195;47.744;7.358;2023-07-29T04:44:35;19.50;99.90
37310;DHT22;23195;47.744;7.358;2023-07-29T04:47:02;19.60;99.90
37310;DHT22;23195;47.744;7.358;2023-07-29T04:49:28;19.80;99.90
37310;DHT22;23195;47.744;7.358;2023-07-29T04:51:53;19.90;99.90
37310;DHT22;23195;47.744;7.358;2023-07-29T04:54:19;20.20;99.90
37310;DHT22;23195;47.744;7.358;2023-07-29T04:56:46;20.40;99.90
37310;DHT22;23195;47.744;7.358;2023-07-29T04:59:12;20.50;99.90
37310;DHT22;23195;47.744;7.358;2023-07-29T05:01:38;20.60;99.90
37310;DHT22;23195;47.744;7.358;2023-07-29T05:04:04;20.60;99.90
37310;DHT22;23195;47.744;7.358;2023-07-29T05:06:30;20.60;99.90
37310;DHT22;23195;47.744;7.358;2023-07-29T05:08:59;20.60;99.90
37310;DHT22;23195;47.744;7.358;2023-07-29T05:11:37;20.60;99.90
37310;DHT22;23195;47.744;7.358;2023-07-29T05:14:03;20.70;99.90
37310;DHT22;23195;47.744;7.358;2023-07-29T05:16:37;20.90;99.90
37310;DHT22;23195;47.744;7.358;2023-07-29T05:19:03;21.10;99.90
37310;DHT22;23195;47.744;7.358;2023-07-29T05:21:29;21.20;99.90
37310;DHT22;23195;47.744;7.358;2023-07-29T05:23:55;21.30;99.90
37310;DHT22;23195;47.744;7.358;2023-07-29T05:26:22;21.20;99.90
37310;DHT22;23195;47.744;7.358;2023-07-29T05:28:47;21.20;99.90
37310;DHT22;23195;47.744;7.358;2023-07-29T05:31:13;21.20;99.90
37310;DHT22;23195;47.744;7.358;2023-07-29T05:33:39;21.20;99.90
37310;DHT22;23195;47.744;7.358;2023-07-29T05:36:05;21.90;99.90
37310;DHT22;23195;47.744;7.358;2023-07-29T05:38:34;22.90;99.90
37310;DHT22;23195;47.744;7.358;2023-07-29T05:40:59;23.10;99.90
37310;DHT22;23195;47.744;7.358;2023-07-29T05:43:26;23.00;99.90
37310;DHT22;23195;47.744;7.358;2023-07-29T05:45:52;22.70;99.90
37310;DHT22;23195;47.744;7.358;2023-07-29T05:48:19;22.70;99.90
37310;DHT22;23195;47.744;7.358;2023-07-29T05:50:50;22.60;99.90
37310;DHT22;23195;47.744;7.358;2023-07-29T05:53:16;22.50;99.90
37310;DHT22;23195;47.744;7.358;2023-07-29T05:55:42;22.30;99.90
37310;DHT22;23195;47.744;7.358;2023-07-29T05:58:09;22.20;99.90
37310;DHT22;23195;47.744;7.358;2023-07-29T06:00:37;22.10;99.90
37310;DHT22;23195;47.744;7.358;2023-07-29T06:03:04;22.10;99.90
37310;DHT22;23195;47.744;7.358;2023-07-29T06:05:32;22.20;99.90
37310;DHT22;23195;47.744;7.358;2023-07-29T06:07:58;22.40;99.90
37310;DHT22;23195;47.744;7.358;2023-07-29T06:10:27;22.40;99.90
37310;DHT22;23195;47.744;7.358;2023-07-29T06:12:53;22.40;99.90
37310;DHT22;23195;47.744;7.358;2023-07-29T06:15:19;22.20;99.90
37310;DHT22;23195;47.744;7.358;2023-07-29T06:17:48;22.00;99.90
37310;DHT22;23195;47.744;7.358;2023-07-29T06:20:16;22.00;99.90
37310;DHT22;23195;47.744;7.358;2023-07-29T06:22:42;21.90;99.90
37310;DHT22;23195;47.744;7.358;2023-07-29T06:28:38;21.70;99.90
37310;DHT22;23195;47.744;7.358;2023-07-29T06:31:03;21.70;99.90
37310;DHT22;23195;47.744;7.358;2023-07-29T06:33:29;21.70;99.90
37310;DHT22;23195;47.744;7.358;2023-07-29T06:35:55;21.80;99.90
37310;DHT22;23195;47.744;7.358;2023-07-29T06:38:26;22.00;99.90
37310;DHT22;23195;47.744;7.358;2023-07-29T06:40:52;22.10;99.90
37310;DHT22;23195;47.744;7.358;2023-07-29T06:43:18;22.30;99.90
37310;DHT22;23195;47.744;7.358;2023-07-29T06:45:44;22.60;99.90
37310;DHT22;23195;47.744;7.358;2023-07-29T06:48:09;23.00;99.90
37310;DHT22;23195;47.744;7.358;2023-07-29T06:50:35;23.40;99.90
37310;DHT22;23195;47.744;7.358;2023-07-29T06:53:01;23.70;99.90
37310;DHT22;23195;47.744;7.358;2023-07-29T06:55:27;23.70;99.90
37310;DHT22;23195;47.744;7.358;2023-07-29T06:57:53;23.50;99.90
37310;DHT22;23195;47.744;7.358;2023-07-29T07:00:18;23.40;99.90
37310;DHT22;23195;47.744;7.358;2023-07-29T07:02:44;23.50;99.90
37310;DHT22;23195;47.744;7.358;2023-07-29T07:05:10;24.00;99.90
37310;DHT22;23195;47.744;7.358;2023-07-29T07:07:36;25.60;99.90
37310;DHT22;23195;47.744;7.358;2023-07-29T07:10:03;27.30;99.90
37310;DHT22;23195;47.744;7.358;2023-07-29T07:12:29;28.70;99.90
37310;DHT22;23195;47.744;7.358;2023-07-29T07:14:55;29.60;99.90
37310;DHT22;23195;47.744;7.358;2023-07-29T07:17:21;30.20;99.90
37310;DHT22;23195;47.744;7.358;2023-07-29T07:19:47;30.80;99.90
37310;DHT22;23195;47.744;7.358;2023-07-29T07:22:45;31.30;99.90
37310;DHT22;23195;47.744;7.358;2023-07-29T07:25:43;31.60;99.90
37310;DHT22;23195;47.744;7.358;2023-07-29T07:28:32;32.60;99.90
37310;DHT22;23195;47.744;7.358;2023-07-29T07:31:05;33.00;99.50
37310;DHT22;23195;47.744;7.358;2023-07-29T07:33:36;32.70;99.30
37310;DHT22;23195;47.744;7.358;2023-07-29T07:36:10;33.00;98.60
37310;DHT22;23195;47.744;7.358;2023-07-29T07:38:50;32.80;98.30
37310;DHT22;23195;47.744;7.358;2023-07-29T07:41:16;32.60;97.90
37310;DHT22;23195;47.744;7.358;2023-07-29T07:43:42;33.00;97.90
37310;DHT22;23195;47.744;7.358;2023-07-29T07:46:08;32.50;97.50
37310;DHT22;23195;47.744;7.358;2023-07-29T07:48:34;31.80;98.10
37310;DHT22;23195;47.744;7.358;2023-07-29T07:51:12;31.40;98.90
37310;DHT22;23195;47.744;7.358;2023-07-29T07:53:48;32.30;98.20
37310;DHT22;23195;47.744;7.358;2023-07-29T07:56:16;32.70;96.90
37310;DHT22;23195;47.744;7.358;2023-07-29T07:58:42;32.60;96.80
37310;DHT22;23195;47.744;7.358;2023-07-29T08:01:14;31.90;97.50
37310;DHT22;23195;47.744;7.358;2023-07-29T08:03:40;31.70;98.00
37310;DHT22;23195;47.744;7.358;2023-07-29T08:06:18;31.80;97.70
37310;DHT22;23195;47.744;7.358;2023-07-29T08:08:44;31.60;97.80
37310;DHT22;23195;47.744;7.358;2023-07-29T08:11:26;31.90;97.90
37310;DHT22;23195;47.744;7.358;2023-07-29T08:13:54;32.20;97.60
37310;DHT22;23195;47.744;7.358;2023-07-29T08:16:20;32.40;96.90
37310;DHT22;23195;47.744;7.358;2023-07-29T08:18:46;31.80;97.70
37310;DHT22;23195;47.744;7.358;2023-07-29T08:21:18;31.70;97.70
37310;DHT22;23195;47.744;7.358;2023-07-29T08:23:48;31.90;97.50
37310;DHT22;23195;47.744;7.358;2023-07-29T08:26:14;31.40;98.10
37310;DHT22;23195;47.744;7.358;2023-07-29T08:28:40;31.60;97.90
37310;DHT22;23195;47.744;7.358;2023-07-29T08:31:06;31.80;97.70
37310;DHT22;23195;47.744;7.358;2023-07-29T08:33:33;32.10;96.90
37310;DHT22;23195;47.744;7.358;2023-07-29T08:36:01;32.00;96.90
37310;DHT22;23195;47.744;7.358;2023-07-29T08:38:27;32.30;96.80
37310;DHT22;23195;47.744;7.358;2023-07-29T08:41:21;31.80;96.80
37310;DHT22;23195;47.744;7.358;2023-07-29T08:44:11;32.30;97.10
37310;DHT22;23195;47.744;7.358;2023-07-29T08:46:39;32.50;95.70
37310;DHT22;23195;47.744;7.358;2023-07-29T08:49:05;32.50;95.70
37310;DHT22;23195;47.744;7.358;2023-07-29T08:51:31;31.40;95.50
37310;DHT22;23195;47.744;7.358;2023-07-29T08:53:58;31.90;96.00
37310;DHT22;23195;47.744;7.358;2023-07-29T08:56:25;31.50;96.60
37310;DHT22;23195;47.744;7.358;2023-07-29T08:58:52;31.30;96.70
37310;DHT22;23195;47.744;7.358;2023-07-29T09:01:24;31.80;96.90
37310;DHT22;23195;47.744;7.358;2023-07-29T09:03:49;31.90;96.20
37310;DHT22;23195;47.744;7.358;2023-07-29T09:06:16;31.30;96.50
37310;DHT22;23195;47.744;7.358;2023-07-29T09:08:43;30.60;97.30
37310;DHT22;23195;47.744;7.358;2023-07-29T09:11:09;29.60;98.70
37310;DHT22;23195;47.744;7.358;2023-07-29T09:13:35;28.90;99.90
37310;DHT22;23195;47.744;7.358;2023-07-29T09:16:01;28.70;99.90
37310;DHT22;23195;47.744;7.358;2023-07-29T09:18:27;28.80;99.90
37310;DHT22;23195;47.744;7.358;2023-07-29T09:20:54;28.10;99.90
37310;DHT22;23195;47.744;7.358;2023-07-29T09:23:20;27.80;99.90
37310;DHT22;23195;47.744;7.358;2023-07-29T09:25:48;27.50;99.90
37310;DHT22;23195;47.744;7.358;2023-07-29T09:28:16;27.40;99.90
37310;DHT22;23195;47.744;7.358;2023-07-29T09:30:44;28.30;99.90
37310;DHT22;23195;47.744;7.358;2023-07-29T09:33:13;28.80;99.90
37310;DHT22;23195;47.744;7.358;2023-07-29T09:35:39;28.90;99.90
37310;DHT22;23195;47.744;7.358;2023-07-29T09:38:06;29.00;99.90
37310;DHT22;23195;47.744;7.358;2023-07-29T09:40:40;29.30;99.90
37310;DHT22;23195;47.744;7.358;2023-07-29T09:43:09;29.80;99.90
37310;DHT22;23195;47.744;7.358;2023-07-29T09:45:45;30.20;99.20
37310;DHT22;23195;47.744;7.358;2023-07-29T09:48:11;30.30;99.50
37310;DHT22;23195;47.744;7.358;2023-07-29T09:50:37;30.30;99.30
37310;DHT22;23195;47.744;7.358;2023-07-29T09:53:03;29.90;99.50
37310;DHT22;23195;47.744;7.358;2023-07-29T09:55:33;29.90;98.90
37310;DHT22;23195;47.744;7.358;2023-07-29T09:58:01;29.90;99.00
37310;DHT22;23195;47.744;7.358;2023-07-29T10:00:29;29.70;98.90
37310;DHT22;23195;47.744;7.358;2023-07-29T10:02:56;29.50;99.50
37310;DHT22;23195;47.744;7.358;2023-07-29T10:05:22;29.20;99.90
37310;DHT22;23195;47.744;7.358;2023-07-29T10:07:49;29.10;99.90
37310;DHT22;23195;47.744;7.358;2023-07-29T10:10:15;29.00;99.90
37310;DHT22;23195;47.744;7.358;2023-07-29T10:12:45;28.90;99.90
37310;DHT22;23195;47.744;7.358;2023-07-29T10:15:11;28.90;99.80
37310;DHT22;23195;47.744;7.358;2023-07-29T10:17:38;28.90;99.80
37310;DHT22;23195;47.744;7.358;2023-07-29T10:20:06;29.00;99.60
37310;DHT22;23195;47.744;7.358;2023-07-29T10:22:40;29.10;99.60
37310;DHT22;23195;47.744;7.358;2023-07-29T10:25:25;29.40;98.70
37310;DHT22;23195;47.744;7.358;2023-07-29T10:28:00;29.30;98.70
37310;DHT22;23195;47.744;7.358;2023-07-29T10:30:28;29.00;98.80
37310;DHT22;23195;47.744;7.358;2023-07-29T10:32:55;29.30;98.90
37310;DHT22;23195;47.744;7.358;2023-07-29T10:35:23;29.70;98.20
37310;DHT22;23195;47.744;7.358;2023-07-29T10:37:51;29.40;97.90
37310;DHT22;23195;47.744;7.358;2023-07-29T10:40:19;29.10;98.70
37310;DHT22;23195;47.744;7.358;2023-07-29T10:43:10;29.00;98.70
37310;DHT22;23195;47.744;7.358;2023-07-29T10:45:40;28.20;98.90
37310;DHT22;23195;47.744;7.358;2023-07-29T10:54:11;28.60;98.40
37310;DHT22;23195;47.744;7.358;2023-07-29T10:56:47;28.70;98.50
37310;DHT22;23195;47.744;7.358;2023-07-29T11:01:45;28.70;97.60
37310;DHT22;23195;47.744;7.358;2023-07-29T11:04:25;28.60;96.80
37310;DHT22;23195;47.744;7.358;2023-07-29T11:12:40;28.90;95.30
37310;DHT22;23195;47.744;7.358;2023-07-29T11:20:15;28.70;95.80
37310;DHT22;23195;47.744;7.358;2023-07-29T11:22:44;28.60;95.90
37310;DHT22;23195;47.744;7.358;2023-07-29T11:25:12;28.80;95.60
37310;DHT22;23195;47.744;7.358;2023-07-29T11:27:38;29.00;96.00
37310;DHT22;23195;47.744;7.358;2023-07-29T11:30:12;29.00;96.30
37310;DHT22;23195;47.744;7.358;2023-07-29T11:32:55;28.90;96.20
37310;DHT22;23195;47.744;7.358;2023-07-29T11:35:21;28.90;96.40
37310;DHT22;23195;47.744;7.358;2023-07-29T11:37:55;29.00;96.40
37310;DHT22;23195;47.744;7.358;2023-07-29T11:40:28;29.10;96.40
37310;DHT22;23195;47.744;7.358;2023-07-29T11:43:04;29.20;96.00
37310;DHT22;23195;47.744;7.358;2023-07-29T11:45:33;29.30;96.00
37310;DHT22;23195;47.744;7.358;2023-07-29T11:48:02;29.40;96.20
37310;DHT22;23195;47.744;7.358;2023-07-29T11:50:28;29.60;95.70
37310;DHT22;23195;47.744;7.358;2023-07-29T11:52:54;29.50;95.90
37310;DHT22;23195;47.744;7.358;2023-07-29T11:55:19;29.40;95.40
37310;DHT22;23195;47.744;7.358;2023-07-29T11:57:50;29.30;96.30
37310;DHT22;23195;47.744;7.358;2023-07-29T12:00:21;29.10;95.20
37310;DHT22;23195;47.744;7.358;2023-07-29T12:02:47;29.00;95.20
37310;DHT22;23195;47.744;7.358;2023-07-29T12:05:14;28.80;95.60
37310;DHT22;23195;47.744;7.358;2023-07-29T12:07:42;28.60;95.70
37310;DHT22;23195;47.744;7.358;2023-07-29T12:10:09;28.60;95.80
37310;DHT22;23195;47.744;7.358;2023-07-29T12:12:45;28.70;96.50
37310;DHT22;23195;47.744;7.358;2023-07-29T12:15:22;27.60;95.70
37310;DHT22;23195;47.744;7.358;2023-07-29T12:17:47;28.70;96.40
37310;DHT22;23195;47.744;7.358;2023-07-29T12:20:13;28.60;96.60
37310;DHT22;23195;47.744;7.358;2023-07-29T12:22:42;28.70;96.50
37310;DHT22;23195;47.744;7.358;2023-07-29T12:25:08;28.60;96.70
37310;DHT22;23195;47.744;7.358;2023-07-29T12:27:34;28.70;97.50
37310;DHT22;23195;47.744;7.358;2023-07-29T12:30:01;28.60;97.00
37310;DHT22;23195;47.744;7.358;2023-07-29T12:32:29;28.70;97.10
37310;DHT22;23195;47.744;7.358;2023-07-29T12:34:55;28.50;97.50
37310;DHT22;23195;47.744;7.358;2023-07-29T12:37:32;28.50;97.20
37310;DHT22;23195;47.744;7.358;2023-07-29T12:39:58;28.30;97.60
37310;DHT22;23195;47.744;7.358;2023-07-29T12:42:24;28.40;97.30
37310;DHT22;23195;47.744;7.358;2023-07-29T12:44:49;28.30;97.30
37310;DHT22;23195;47.744;7.358;2023-07-29T12:47:15;28.20;97.60
37310;DHT22;23195;47.744;7.358;2023-07-29T12:49:41;28.10;98.10
37310;DHT22;23195;47.744;7.358;2023-07-29T12:52:10;28.00;98.10
37310;DHT22;23195;47.744;7.358;2023-07-29T12:54:36;28.60;98.30
37310;DHT22;23195;47.744;7.358;2023-07-29T12:57:01;28.20;98.90
37310;DHT22;23195;47.744;7.358;2023-07-29T12:59:27;28.40;98.50
37310;DHT22;23195;47.744;7.358;2023-07-29T13:01:53;28.40;98.70
37310;DHT22;23195;47.744;7.358;2023-07-29T13:04:19;28.30;98.80
37310;DHT22;23195;47.744;7.358;2023-07-29T13:06:44;28.30;98.40
37310;DHT22;23195;47.744;7.358;2023-07-29T13:09:10;28.50;98.80
37310;DHT22;23195;47.744;7.358;2023-07-29T13:11:36;28.40;98.30
37310;DHT22;23195;47.744;7.358;2023-07-29T13:14:02;28.30;98.00
37310;DHT22;23195;47.744;7.358;2023-07-29T13:16:28;28.30;97.50
37310;DHT22;23195;47.744;7.358;2023-07-29T13:18:59;28.30;97.30
37310;DHT22;23195;47.744;7.358;2023-07-29T13:21:24;28.30;97.90
37310;DHT22;23195;47.744;7.358;2023-07-29T13:23:51;28.70;97.70
37310;DHT22;23195;47.744;7.358;2023-07-29T13:26:17;29.10;97.60
37310;DHT22;23195;47.744;7.358;2023-07-29T13:28:43;28.70;97.60
37310;DHT22;23195;47.744;7.358;2023-07-29T13:31:08;28.90;98.00
37310;DHT22;23195;47.744;7.358;2023-07-29T13:33:37;29.00;96.60
37310;DHT22;23195;47.744;7.358;2023-07-29T13:36:03;28.80;96.00
37310;DHT22;23195;47.744;7.358;2023-07-29T13:38:29;28.80;96.60
37310;DHT22;23195;47.744;7.358;2023-07-29T13:40:55;28.80;96.30
37310;DHT22;23195;47.744;7.358;2023-07-29T13:43:21;29.00;96.50
37310;DHT22;23195;47.744;7.358;2023-07-29T13:45:47;28.70;97.50
37310;DHT22;23195;47.744;7.358;2023-07-29T13:48:18;28.50;97.10
37310;DHT22;23195;47.744;7.358;2023-07-29T13:50:44;28.30;97.10
37310;DHT22;23195;47.744;7.358;2023-07-29T13:53:10;28.20;97.70
37310;DHT22;23195;47.744;7.358;2023-07-29T13:55:36;28.20;98.30
37310;DHT22;23195;47.744;7.358;2023-07-29T13:58:02;28.10;99.00
37310;DHT22;23195;47.744;7.358;2023-07-29T14:00:27;28.00;98.70
37310;DHT22;23195;47.744;7.358;2023-07-29T14:02:53;28.00;98.70
37310;DHT22;23195;47.744;7.358;2023-07-29T14:05:19;27.90;98.40
37310;DHT22;23195;47.744;7.358;2023-07-29T14:07:45;27.90;98.60
37310;DHT22;23195;47.744;7.358;2023-07-29T14:10:11;27.90;98.80
37310;DHT22;23195;47.744;7.358;2023-07-29T14:12:36;27.80;99.40
37310;DHT22;23195;47.744;7.358;2023-07-29T14:15:03;27.50;99.90
37310;DHT22;23195;47.744;7.358;2023-07-29T14:17:30;27.30;99.90
37310;DHT22;23195;47.744;7.358;2023-07-29T14:19:56;27.00;99.90
37310;DHT22;23195;47.744;7.358;2023-07-29T14:22:21;26.90;99.90
37310;DHT22;23195;47.744;7.358;2023-07-29T14:24:47;26.80;99.90
37310;DHT22;23195;47.744;7.358;2023-07-29T14:27:13;26.60;99.90
37310;DHT22;23195;47.744;7.358;2023-07-29T14:29:39;26.30;99.90
37310;DHT22;23195;47.744;7.358;2023-07-29T14:32:05;25.90;99.90
37310;DHT22;23195;47.744;7.358;2023-07-29T14:34:41;25.80;99.90
37310;DHT22;23195;47.744;7.358;2023-07-29T14:37:09;25.50;99.90
37310;DHT22;23195;47.744;7.358;2023-07-29T14:39:34;25.30;99.90
37310;DHT22;23195;47.744;7.358;2023-07-29T14:42:04;25.20;99.90
37310;DHT22;23195;47.744;7.358;2023-07-29T14:44:29;25.40;99.90
37310;DHT22;23195;47.744;7.358;2023-07-29T14:46:55;25.50;99.90
37310;DHT22;23195;47.744;7.358;2023-07-29T14:49:21;25.50;99.90
37310;DHT22;23195;47.744;7.358;2023-07-29T14:51:47;25.50;99.90
37310;DHT22;23195;47.744;7.358;2023-07-29T14:54:13;25.10;99.90
37310;DHT22;23195;47.744;7.358;2023-07-29T14:56:39;25.20;99.90
37310;DHT22;23195;47.744;7.358;2023-07-29T14:59:04;25.10;99.90
37310;DHT22;23195;47.744;7.358;2023-07-29T15:01:31;25.00;99.90
37310;DHT22;23195;47.744;7.358;2023-07-29T15:03:57;24.80;99.90
37310;DHT22;23195;47.744;7.358;2023-07-29T15:06:23;24.80;99.90
37310;DHT22;23195;47.744;7.358;2023-07-29T15:08:48;24.90;99.90
37310;DHT22;23195;47.744;7.358;2023-07-29T15:11:14;24.90;99.90
37310;DHT22;23195;47.744;7.358;2023-07-29T15:13:40;25.10;99.90
37310;DHT22;23195;47.744;7.358;2023-07-29T15:16:08;25.40;99.90
37310;DHT22;23195;47.744;7.358;2023-07-29T15:18:34;25.50;99.90
37310;DHT22;23195;47.744;7.358;2023-07-29T15:21:02;25.50;99.90
37310;DHT22;23195;47.744;7.358;2023-07-29T15:23:28;25.50;99.90
37310;DHT22;23195;47.744;7.358;2023-07-29T15:25:55;25.40;99.90
37310;DHT22;23195;47.744;7.358;2023-07-29T15:28:20;25.30;99.90
37310;DHT22;23195;47.744;7.358;2023-07-29T15:30:46;25.30;99.90
37310;DHT22;23195;47.744;7.358;2023-07-29T15:33:12;25.30;99.90
37310;DHT22;23195;47.744;7.358;2023-07-29T15:35:38;25.20;99.90
37310;DHT22;23195;47.744;7.358;2023-07-29T15:38:08;25.20;99.90
37310;DHT22;23195;47.744;7.358;2023-07-29T15:40:33;25.20;99.90
37310;DHT22;23195;47.744;7.358;2023-07-29T15:42:59;25.10;99.90
37310;DHT22;23195;47.744;7.358;2023-07-29T15:45:25;25.20;99.90
37310;DHT22;23195;47.744;7.358;2023-07-29T15:47:51;25.20;99.90
37310;DHT22;23195;47.744;7.358;2023-07-29T15:50:17;25.20;99.90
37310;DHT22;23195;47.744;7.358;2023-07-29T15:52:42;25.20;99.90
37310;DHT22;23195;47.744;7.358;2023-07-29T15:55:09;25.20;99.90
37310;DHT22;23195;47.744;7.358;2023-07-29T15:57:54;25.10;99.90
37310;DHT22;23195;47.744;7.358;2023-07-29T16:00:23;24.90;99.90
37310;DHT22;23195;47.744;7.358;2023-07-29T16:02:50;24.80;99.90
37310;DHT22;23195;47.744;7.358;2023-07-29T16:05:15;24.70;99.90
37310;DHT22;23195;47.744;7.358;2023-07-29T16:07:41;24.70;99.90